S59ZO-6 Weather Reports


Display with metric or nautical units.
time (UTC)temp
F
wind
direction
speed
MPH
gust
MPH
rain 1hr
in
rain 24hr
in
rain mn
in
humidity
%
barometer
mb
20190116161005 46 182 9.0 16.0 0.00 0.95 0.00 50 1011.3
20190116160004 46 177 8.0 12.0 0.00 0.95 0.00 50 1011.4
20190116155004 46 189 8.0 11.0 0.00 0.95 0.00 49 1011.4
20190116154005 47 182 6.0 11.0 0.00 0.95 0.00 48 1011.3
20190116152005 48 188 7.0 14.0 0.00 0.95 0.00 47 1011.2
20190116151005 48 181 10.0 14.0 0.00 0.95 0.00 46 1011.3
20190116150005 49 186 8.0 12.0 0.00 0.95 0.00 45 1011.3
20190116145004 49 179 8.0 14.0 0.00 0.95 0.00 45 1011.3
20190116144005 49 177 8.0 14.0 0.00 0.95 0.00 44 1011.3
20190116143004 49 185 8.0 15.0 0.00 0.95 0.00 44 1011.4
20190116142004 50 186 11.0 15.0 0.00 0.95 0.00 43 1011.4
20190116141004 50 161 11.0 15.0 0.00 0.95 0.00 43 1011.2
20190116135004 51 181 11.0 16.0 0.00 0.95 0.00 42 1011.3
20190116133009 51 181 8.0 16.0 0.00 0.95 0.00 41 1011.3
20190116132005 51 188 10.0 17.0 0.00 0.95 0.00 41 1011.3
20190116131005 51 176 12.0 18.0 0.00 0.95 0.00 41 1011.4
20190116130005 51 162 13.0 20.0 0.00 0.95 0.00 40 1011.5
20190116125004 51 192 11.0 19.0 0.00 0.95 0.00 40 1011.5
20190116124005 51 178 9.0 17.0 0.00 0.95 0.00 40 1011.3
20190116123005 51 189 10.0 17.0 0.00 0.95 0.00 40 1011.3
20190116122004 50 189 6.0 15.0 0.00 0.95 0.00 39 1011.4
20190116121005 50 194 9.0 13.0 0.00 0.95 0.00 39 1011.5
20190116120005 50 190 6.0 13.0 0.00 0.95 0.00 41 1011.6
20190116113005 49 194 8.0 11.0 0.00 0.95 0.00 42 1011.9
20190116112005 49 166 6.0 11.0 0.00 0.95 0.00 43 1012.0
20190116111004 49 181 8.0 15.0 0.00 0.95 0.00 43 1012.0
20190116104006 47 184 9.0 14.0 0.00 0.95 0.00 45 1012.2
20190116103005 47 195 11.0 17.0 0.00 0.95 0.00 45 1012.1
20190116102004 47 176 11.0 20.0 0.00 0.95 0.00 45 1012.4
20190116101005 47 156 14.0 17.0 0.00 0.95 0.00 45 1012.4
20190116100005 47 172 14.0 20.0 0.00 0.95 0.00 45 1012.6
20190116095005 47 186 16.0 22.0 0.00 0.95 0.00 46 1012.7
20190116094004 47 175 17.0 24.0 0.00 0.95 0.00 48 1012.7
20190116090004 45 184 11.0 22.0 0.00 0.95 0.00 56 1012.7
20190116085004 44 183 13.0 18.0 0.00 0.95 0.00 58 1012.6
20190116084005 44 200 11.0 19.0 0.00 0.95 0.00 58 1012.5
20190116083005 44 198 15.0 17.0 0.00 0.95 0.00 58 1012.4
20190116081005 43 211 14.0 17.0 0.00 0.95 0.00 59 1012.7
20190116080005 43 181 9.0 16.0 0.00 0.95 0.00 60 1012.7
20190116075004 43 196 10.0 15.0 0.00 0.95 0.00 60 1012.7
20190116074004 42 195 10.0 15.0 0.00 0.95 0.00 60 1012.4
20190116070006 41 181 6.0 11.0 0.00 0.95 0.00 60 1012.3
20190116065005 41 181 7.0 11.0 0.00 0.95 0.00 60 1012.3
20190116062005 42 184 3.0 9.0 0.00 0.95 0.00 60 1012.3
20190116060006 42 187 7.0 12.0 0.00 0.95 0.00 60 1012.0
20190116055005 42 175 8.0 15.0 0.68 0.95 0.00 60 1012.1
20190116054005 42 168 11.0 15.0 0.87 0.95 0.00 60 1011.9
20190116050005 42 188 10.0 19.0 0.00 0.00 0.00 62 1011.8
20190116044005 41 188 7.0 13.0 0.00 0.00 0.00 62 1011.9
20190116043005 41 174 8.0 11.0 0.00 0.00 0.00 63 1011.9
20190116042005 41 178 8.0 11.0 0.00 0.00 0.00 63 1011.9
20190116041005 40 185 4.0 9.0 0.00 0.00 0.00 63 1011.9
20190116040006 39 185 5.0 8.0 0.00 0.00 0.00 63 1012.0
20190116035006 38 151 2.0 4.0 0.00 0.00 0.00 62 1012.1
20190116034005 38 105 0.0 1.0 0.00 0.00 0.00 61 1012.2
20190116031006 40 155 2.0 6.0 0.00 0.00 0.00 61 1012.3
20190116030006 40 182 4.0 9.0 0.00 0.00 0.00 61 1012.3
20190116025005 40 190 5.0 9.0 0.00 0.00 0.00 61 1012.4
20190116024005 40 194 6.0 11.0 0.00 0.00 0.00 61 1012.5
20190116023005 40 171 8.0 11.0 0.00 0.00 0.00 62 1012.6
20190116020005 39 149 0.0 2.0 0.00 0.00 0.00 60 1012.7
20190116013006 40 177 3.0 8.0 0.00 0.00 0.00 58 1012.9
20190116012006 41 193 6.0 11.0 0.00 0.00 0.00 58 1012.9
20190116011006 40 208 8.0 11.0 0.00 0.00 0.00 57 1013.0
20190116004005 40 176 5.0 6.0 0.00 0.00 0.00 56 1013.0
20190116003005 40 184 3.0 4.0 0.00 0.00 0.00 56 1013.0
20190116001005 39 181 3.0 6.0 0.00 0.00 0.00 55 1013.1
20190116000006 39 192 2.0 7.0 0.00 0.00 0.00 55 1013.2
20190115233003 40 188 2.0 5.0 0.00 0.00 0.00 54 1013.2
20190115232002 40 179 3.0 13.0 0.00 0.00 0.00 54 1013.2
20190115231003 40 177 2.0 6.0 0.00 0.00 0.00 54 1013.3
20190115230004 39 167 5.0 11.0 0.00 0.00 0.00 54 1013.2
20190115225002 39 199 8.0 11.0 0.00 0.00 0.00 55 1013.3
20190115224003 38 176 11.0 12.0 0.00 0.00 0.00 55 1013.1
20190115222002 36 157 3.0 4.0 0.00 0.00 0.00 55 1013.7
20190115221003 35 169 0.0 4.0 0.00 0.00 0.00 54 1013.6
20190115220002 35 151 0.0 2.0 0.00 0.00 0.00 53 1013.5
20190115215002 35 138 0.0 3.0 0.00 0.00 0.00 53 1013.7
20190115214003 35 159 2.0 2.0 0.00 0.00 0.00 53 1013.4
20190115213003 35 124 2.0 2.0 0.00 0.00 0.00 53 1013.6
20190115212002 35 1 0.0 2.0 0.00 0.00 0.00 54 1013.6
20190115211002 33 330 1.0 2.0 0.00 0.00 0.00 55 1013.7
20190115210003 33 1 0.0 1.0 0.00 0.00 0.00 53 1013.7
20190115205002 34 144 0.0 2.0 0.00 0.00 0.00 52 1013.7
20190115204002 34 152 0.0 2.0 0.00 0.00 0.00 51 1013.7
20190115203003 35 147 0.0 4.0 0.00 0.00 0.00 50 1013.7
20190115201003 37 52 1.0 3.0 0.00 0.00 0.00 50 1013.5
20190115200004 36 181 2.0 2.0 0.00 0.00 0.00 50 1013.4